sensor_id;sensor_type;location;lat;lon;timestamp;temperature;humidity
52919;DHT22;38793;52.690;6.812;2024-03-22T00:01:47;9.50;99.90
52919;DHT22;38793;52.690;6.812;2024-03-22T00:04:13;9.50;99.90
52919;DHT22;38793;52.690;6.812;2024-03-22T00:06:40;9.60;99.90
52919;DHT22;38793;52.690;6.812;2024-03-22T00:09:06;9.60;99.90
52919;DHT22;38793;52.690;6.812;2024-03-22T00:11:32;9.60;99.90
52919;DHT22;38793;52.690;6.812;2024-03-22T00:13:58;9.60;99.90
52919;DHT22;38793;52.690;6.812;2024-03-22T00:16:23;9.60;99.90
52919;DHT22;38793;52.690;6.812;2024-03-22T00:18:49;9.70;99.90
52919;DHT22;38793;52.690;6.812;2024-03-22T00:21:15;9.70;99.90
52919;DHT22;38793;52.690;6.812;2024-03-22T00:23:40;9.70;99.90
52919;DHT22;38793;52.690;6.812;2024-03-22T00:26:07;9.70;99.90
52919;DHT22;38793;52.690;6.812;2024-03-22T00:28:32;9.70;99.90
52919;DHT22;38793;52.690;6.812;2024-03-22T00:30:58;9.70;99.90
52919;DHT22;38793;52.690;6.812;2024-03-22T00:33:24;9.80;99.90
52919;DHT22;38793;52.690;6.812;2024-03-22T00:35:50;9.80;99.90
52919;DHT22;38793;52.690;6.812;2024-03-22T00:38:15;9.80;99.90
52919;DHT22;38793;52.690;6.812;2024-03-22T00:40:41;9.80;99.90
52919;DHT22;38793;52.690;6.812;2024-03-22T00:43:07;9.80;99.90
52919;DHT22;38793;52.690;6.812;2024-03-22T00:45:33;9.80;99.90
52919;DHT22;38793;52.690;6.812;2024-03-22T00:47:58;9.80;99.90
52919;DHT22;38793;52.690;6.812;2024-03-22T00:50:24;9.80;99.90
52919;DHT22;38793;52.690;6.812;2024-03-22T00:52:53;9.90;99.90
52919;DHT22;38793;52.690;6.812;2024-03-22T00:55:21;9.80;99.90
52919;DHT22;38793;52.690;6.812;2024-03-22T00:57:46;9.80;99.90
52919;DHT22;38793;52.690;6.812;2024-03-22T01:00:12;9.80;99.90
52919;DHT22;38793;52.690;6.812;2024-03-22T01:02:38;9.90;99.90
52919;DHT22;38793;52.690;6.812;2024-03-22T01:05:04;9.90;99.90
52919;DHT22;38793;52.690;6.812;2024-03-22T01:07:30;9.90;99.90
52919;DHT22;38793;52.690;6.812;2024-03-22T01:09:55;9.90;99.90
52919;DHT22;38793;52.690;6.812;2024-03-22T01:12:21;9.90;99.90
52919;DHT22;38793;52.690;6.812;2024-03-22T01:14:47;9.90;99.90
52919;DHT22;38793;52.690;6.812;2024-03-22T01:17:12;9.90;99.90
52919;DHT22;38793;52.690;6.812;2024-03-22T01:19:38;9.90;99.90
52919;DHT22;38793;52.690;6.812;2024-03-22T01:22:04;9.90;99.90
52919;DHT22;38793;52.690;6.812;2024-03-22T01:24:29;10.00;99.90
52919;DHT22;38793;52.690;6.812;2024-03-22T01:26:55;10.00;99.90
52919;DHT22;38793;52.690;6.812;2024-03-22T01:29:21;10.00;99.90
52919;DHT22;38793;52.690;6.812;2024-03-22T01:31:47;10.00;99.90
52919;DHT22;38793;52.690;6.812;2024-03-22T01:34:13;10.00;99.90
52919;DHT22;38793;52.690;6.812;2024-03-22T01:36:40;10.00;99.90
52919;DHT22;38793;52.690;6.812;2024-03-22T01:39:06;10.00;99.90
52919;DHT22;38793;52.690;6.812;2024-03-22T01:41:31;10.00;99.90
52919;DHT22;38793;52.690;6.812;2024-03-22T01:43:58;10.00;99.90
52919;DHT22;38793;52.690;6.812;2024-03-22T01:46:24;10.00;99.90
52919;DHT22;38793;52.690;6.812;2024-03-22T01:48:50;10.00;99.90
52919;DHT22;38793;52.690;6.812;2024-03-22T01:51:16;10.00;99.90
52919;DHT22;38793;52.690;6.812;2024-03-22T01:53:42;10.10;99.90
52919;DHT22;38793;52.690;6.812;2024-03-22T01:56:08;10.10;99.90
52919;DHT22;38793;52.690;6.812;2024-03-22T01:58:33;10.10;99.90
52919;DHT22;38793;52.690;6.812;2024-03-22T02:00:59;10.10;99.90
52919;DHT22;38793;52.690;6.812;2024-03-22T02:03:25;10.10;99.90
52919;DHT22;38793;52.690;6.812;2024-03-22T02:05:50;10.10;99.90
52919;DHT22;38793;52.690;6.812;2024-03-22T02:08:16;10.10;99.90
52919;DHT22;38793;52.690;6.812;2024-03-22T02:10:43;10.10;99.90
52919;DHT22;38793;52.690;6.812;2024-03-22T02:13:09;10.10;99.90
52919;DHT22;38793;52.690;6.812;2024-03-22T02:15:34;10.10;99.90
52919;DHT22;38793;52.690;6.812;2024-03-22T02:18:00;10.10;99.90
52919;DHT22;38793;52.690;6.812;2024-03-22T02:20:25;10.20;99.90
52919;DHT22;38793;52.690;6.812;2024-03-22T02:22:51;10.20;99.90
52919;DHT22;38793;52.690;6.812;2024-03-22T02:25:17;10.20;99.90
52919;DHT22;38793;52.690;6.812;2024-03-22T02:27:43;10.20;99.90
52919;DHT22;38793;52.690;6.812;2024-03-22T02:30:09;10.20;99.90
52919;DHT22;38793;52.690;6.812;2024-03-22T02:32:34;10.20;99.90
52919;DHT22;38793;52.690;6.812;2024-03-22T02:35:00;10.20;99.90
52919;DHT22;38793;52.690;6.812;2024-03-22T02:37:26;10.30;99.90
52919;DHT22;38793;52.690;6.812;2024-03-22T02:39:53;10.30;99.90
52919;DHT22;38793;52.690;6.812;2024-03-22T02:42:19;10.30;99.90
52919;DHT22;38793;52.690;6.812;2024-03-22T02:44:45;10.30;99.90
52919;DHT22;38793;52.690;6.812;2024-03-22T02:47:10;10.30;99.90
52919;DHT22;38793;52.690;6.812;2024-03-22T02:49:38;10.30;99.90
52919;DHT22;38793;52.690;6.812;2024-03-22T02:52:04;10.30;99.90
52919;DHT22;38793;52.690;6.812;2024-03-22T02:54:29;10.30;99.90
52919;DHT22;38793;52.690;6.812;2024-03-22T02:56:55;10.40;99.90
52919;DHT22;38793;52.690;6.812;2024-03-22T02:59:21;10.30;99.90
52919;DHT22;38793;52.690;6.812;2024-03-22T03:01:46;10.40;99.90
52919;DHT22;38793;52.690;6.812;2024-03-22T03:04:12;10.40;99.90
52919;DHT22;38793;52.690;6.812;2024-03-22T03:06:38;10.40;99.90
52919;DHT22;38793;52.690;6.812;2024-03-22T03:09:04;10.40;99.90
52919;DHT22;38793;52.690;6.812;2024-03-22T03:11:37;10.40;99.90
52919;DHT22;38793;52.690;6.812;2024-03-22T03:14:02;10.40;99.90
52919;DHT22;38793;52.690;6.812;2024-03-22T03:16:28;10.40;99.90
52919;DHT22;38793;52.690;6.812;2024-03-22T03:18:53;10.40;99.90
52919;DHT22;38793;52.690;6.812;2024-03-22T03:21:19;10.40;99.90
52919;DHT22;38793;52.690;6.812;2024-03-22T03:23:45;10.40;99.90
52919;DHT22;38793;52.690;6.812;2024-03-22T03:26:10;10.40;99.90
52919;DHT22;38793;52.690;6.812;2024-03-22T03:28:36;10.40;99.90
52919;DHT22;38793;52.690;6.812;2024-03-22T03:31:01;10.40;99.90
52919;DHT22;38793;52.690;6.812;2024-03-22T03:33:27;10.40;99.90
52919;DHT22;38793;52.690;6.812;2024-03-22T03:35:53;10.40;99.90
52919;DHT22;38793;52.690;6.812;2024-03-22T03:38:18;10.40;99.90
52919;DHT22;38793;52.690;6.812;2024-03-22T03:40:44;10.40;99.90
52919;DHT22;38793;52.690;6.812;2024-03-22T03:43:10;10.50;99.90
52919;DHT22;38793;52.690;6.812;2024-03-22T03:45:36;10.50;99.90
52919;DHT22;38793;52.690;6.812;2024-03-22T03:48:02;10.50;99.90
52919;DHT22;38793;52.690;6.812;2024-03-22T03:50:28;10.50;99.90
52919;DHT22;38793;52.690;6.812;2024-03-22T03:52:53;10.50;99.90
52919;DHT22;38793;52.690;6.812;2024-03-22T03:55:19;10.50;99.90
52919;DHT22;38793;52.690;6.812;2024-03-22T03:57:45;10.50;99.90
52919;DHT22;38793;52.690;6.812;2024-03-22T04:00:11;10.50;99.90
52919;DHT22;38793;52.690;6.812;2024-03-22T04:02:36;10.50;99.90
52919;DHT22;38793;52.690;6.812;2024-03-22T04:05:02;10.50;99.90
52919;DHT22;38793;52.690;6.812;2024-03-22T04:07:28;10.50;99.90
52919;DHT22;38793;52.690;6.812;2024-03-22T04:09:54;10.50;99.90
52919;DHT22;38793;52.690;6.812;2024-03-22T04:12:20;10.50;99.90
52919;DHT22;38793;52.690;6.812;2024-03-22T04:14:45;10.50;99.90
52919;DHT22;38793;52.690;6.812;2024-03-22T04:17:11;10.50;99.90
52919;DHT22;38793;52.690;6.812;2024-03-22T04:19:37;10.50;99.90
52919;DHT22;38793;52.690;6.812;2024-03-22T04:22:03;10.50;99.90
52919;DHT22;38793;52.690;6.812;2024-03-22T04:24:29;10.60;99.90
52919;DHT22;38793;52.690;6.812;2024-03-22T04:26:55;10.60;99.90
52919;DHT22;38793;52.690;6.812;2024-03-22T04:29:20;10.70;99.90
52919;DHT22;38793;52.690;6.812;2024-03-22T04:31:46;10.70;99.90
52919;DHT22;38793;52.690;6.812;2024-03-22T04:34:12;10.70;99.90
52919;DHT22;38793;52.690;6.812;2024-03-22T04:36:37;10.70;99.90
52919;DHT22;38793;52.690;6.812;2024-03-22T04:39:03;10.70;99.90
52919;DHT22;38793;52.690;6.812;2024-03-22T04:41:29;10.80;99.90
52919;DHT22;38793;52.690;6.812;2024-03-22T04:43:54;10.80;99.90
52919;DHT22;38793;52.690;6.812;2024-03-22T04:46:20;10.80;99.90
52919;DHT22;38793;52.690;6.812;2024-03-22T04:48:46;10.80;99.90
52919;DHT22;38793;52.690;6.812;2024-03-22T04:51:11;10.80;99.90
52919;DHT22;38793;52.690;6.812;2024-03-22T04:53:37;10.80;99.90
52919;DHT22;38793;52.690;6.812;2024-03-22T04:56:03;10.80;99.90
52919;DHT22;38793;52.690;6.812;2024-03-22T04:58:29;10.90;99.90
52919;DHT22;38793;52.690;6.812;2024-03-22T05:00:58;10.90;99.90
52919;DHT22;38793;52.690;6.812;2024-03-22T05:03:24;10.90;99.90
52919;DHT22;38793;52.690;6.812;2024-03-22T05:05:50;10.80;99.90
52919;DHT22;38793;52.690;6.812;2024-03-22T05:08:15;10.90;99.90
52919;DHT22;38793;52.690;6.812;2024-03-22T05:10:41;10.90;99.90
52919;DHT22;38793;52.690;6.812;2024-03-22T05:13:07;10.90;99.90
52919;DHT22;38793;52.690;6.812;2024-03-22T05:15:33;10.90;99.90
52919;DHT22;38793;52.690;6.812;2024-03-22T05:17:59;10.90;99.90
52919;DHT22;38793;52.690;6.812;2024-03-22T05:20:25;10.90;99.90
52919;DHT22;38793;52.690;6.812;2024-03-22T05:22:51;10.90;99.90
52919;DHT22;38793;52.690;6.812;2024-03-22T05:25:16;10.90;99.90
52919;DHT22;38793;52.690;6.812;2024-03-22T05:27:42;10.90;99.90
52919;DHT22;38793;52.690;6.812;2024-03-22T05:30:12;10.90;99.90
52919;DHT22;38793;52.690;6.812;2024-03-22T05:32:39;10.90;99.90
52919;DHT22;38793;52.690;6.812;2024-03-22T05:35:05;10.90;99.90
52919;DHT22;38793;52.690;6.812;2024-03-22T05:37:31;10.90;99.90
52919;DHT22;38793;52.690;6.812;2024-03-22T05:39:57;10.80;99.90
52919;DHT22;38793;52.690;6.812;2024-03-22T05:42:23;10.80;99.90
52919;DHT22;38793;52.690;6.812;2024-03-22T05:44:48;10.90;99.90
52919;DHT22;38793;52.690;6.812;2024-03-22T05:47:14;10.90;99.90
52919;DHT22;38793;52.690;6.812;2024-03-22T05:49:39;10.90;99.90
52919;DHT22;38793;52.690;6.812;2024-03-22T05:52:05;10.90;99.90
52919;DHT22;38793;52.690;6.812;2024-03-22T05:54:31;10.90;99.90
52919;DHT22;38793;52.690;6.812;2024-03-22T05:56:56;10.90;99.90
52919;DHT22;38793;52.690;6.812;2024-03-22T05:59:22;10.90;99.90
52919;DHT22;38793;52.690;6.812;2024-03-22T06:01:48;10.90;99.90
52919;DHT22;38793;52.690;6.812;2024-03-22T06:04:13;10.90;99.90
52919;DHT22;38793;52.690;6.812;2024-03-22T06:06:39;10.80;99.90
52919;DHT22;38793;52.690;6.812;2024-03-22T06:09:05;10.90;99.90
52919;DHT22;38793;52.690;6.812;2024-03-22T06:11:35;10.80;99.90
52919;DHT22;38793;52.690;6.812;2024-03-22T06:14:01;10.80;99.90
52919;DHT22;38793;52.690;6.812;2024-03-22T06:16:26;10.80;99.90
52919;DHT22;38793;52.690;6.812;2024-03-22T06:18:52;10.80;99.90
52919;DHT22;38793;52.690;6.812;2024-03-22T06:21:18;10.70;99.90
52919;DHT22;38793;52.690;6.812;2024-03-22T06:23:51;10.70;99.90
52919;DHT22;38793;52.690;6.812;2024-03-22T06:26:17;10.70;99.90
52919;DHT22;38793;52.690;6.812;2024-03-22T06:28:43;10.70;99.90
52919;DHT22;38793;52.690;6.812;2024-03-22T06:31:08;10.70;99.90
52919;DHT22;38793;52.690;6.812;2024-03-22T06:33:34;10.70;99.90
52919;DHT22;38793;52.690;6.812;2024-03-22T06:36:00;10.70;99.90
52919;DHT22;38793;52.690;6.812;2024-03-22T06:38:26;10.70;99.90
52919;DHT22;38793;52.690;6.812;2024-03-22T06:40:52;10.70;99.90
52919;DHT22;38793;52.690;6.812;2024-03-22T06:43:18;10.70;99.90
52919;DHT22;38793;52.690;6.812;2024-03-22T06:45:44;10.60;99.90
52919;DHT22;38793;52.690;6.812;2024-03-22T06:48:10;10.70;99.90
52919;DHT22;38793;52.690;6.812;2024-03-22T06:50:35;10.60;99.90
52919;DHT22;38793;52.690;6.812;2024-03-22T06:53:01;10.60;99.90
52919;DHT22;38793;52.690;6.812;2024-03-22T06:55:26;10.60;99.90
52919;DHT22;38793;52.690;6.812;2024-03-22T06:57:52;10.60;99.90
52919;DHT22;38793;52.690;6.812;2024-03-22T07:00:18;10.60;99.90
52919;DHT22;38793;52.690;6.812;2024-03-22T07:02:44;10.60;99.90
52919;DHT22;38793;52.690;6.812;2024-03-22T07:05:10;10.60;99.90
52919;DHT22;38793;52.690;6.812;2024-03-22T07:07:36;10.60;99.90
52919;DHT22;38793;52.690;6.812;2024-03-22T07:10:03;10.60;99.90
52919;DHT22;38793;52.690;6.812;2024-03-22T07:12:29;10.60;99.90
52919;DHT22;38793;52.690;6.812;2024-03-22T07:14:59;10.60;99.90
52919;DHT22;38793;52.690;6.812;2024-03-22T07:17:25;10.70;99.90
52919;DHT22;38793;52.690;6.812;2024-03-22T07:19:51;10.70;99.90
52919;DHT22;38793;52.690;6.812;2024-03-22T07:22:17;10.60;99.90
52919;DHT22;38793;52.690;6.812;2024-03-22T07:24:43;10.70;99.90
52919;DHT22;38793;52.690;6.812;2024-03-22T07:27:09;10.70;99.90
52919;DHT22;38793;52.690;6.812;2024-03-22T07:29:35;10.60;99.90
52919;DHT22;38793;52.690;6.812;2024-03-22T07:32:00;10.60;99.90
52919;DHT22;38793;52.690;6.812;2024-03-22T07:34:26;10.60;99.90
52919;DHT22;38793;52.690;6.812;2024-03-22T07:36:52;10.60;99.90
52919;DHT22;38793;52.690;6.812;2024-03-22T07:39:18;10.70;99.90
52919;DHT22;38793;52.690;6.812;2024-03-22T07:41:44;10.60;99.90
52919;DHT22;38793;52.690;6.812;2024-03-22T07:44:10;10.70;99.90
52919;DHT22;38793;52.690;6.812;2024-03-22T07:46:36;10.70;99.90
52919;DHT22;38793;52.690;6.812;2024-03-22T07:49:02;10.70;99.90
52919;DHT22;38793;52.690;6.812;2024-03-22T07:51:30;10.70;99.90
52919;DHT22;38793;52.690;6.812;2024-03-22T07:53:55;10.70;99.90
52919;DHT22;38793;52.690;6.812;2024-03-22T07:56:21;10.80;99.90
52919;DHT22;38793;52.690;6.812;2024-03-22T07:58:47;10.80;99.90
52919;DHT22;38793;52.690;6.812;2024-03-22T08:01:13;10.80;99.90
52919;DHT22;38793;52.690;6.812;2024-03-22T08:03:39;10.80;99.90
52919;DHT22;38793;52.690;6.812;2024-03-22T08:06:05;10.80;99.90
52919;DHT22;38793;52.690;6.812;2024-03-22T08:08:30;10.80;99.90
52919;DHT22;38793;52.690;6.812;2024-03-22T08:10:56;10.80;99.90
52919;DHT22;38793;52.690;6.812;2024-03-22T08:13:22;10.80;99.90
52919;DHT22;38793;52.690;6.812;2024-03-22T08:15:48;10.80;99.90
52919;DHT22;38793;52.690;6.812;2024-03-22T08:18:13;10.80;99.90
52919;DHT22;38793;52.690;6.812;2024-03-22T08:20:39;10.80;99.90
52919;DHT22;38793;52.690;6.812;2024-03-22T08:23:05;10.80;99.90
52919;DHT22;38793;52.690;6.812;2024-03-22T08:25:31;10.80;99.90
52919;DHT22;38793;52.690;6.812;2024-03-22T08:27:57;10.80;99.90
52919;DHT22;38793;52.690;6.812;2024-03-22T08:30:24;10.80;99.90
52919;DHT22;38793;52.690;6.812;2024-03-22T08:32:51;10.80;99.90
52919;DHT22;38793;52.690;6.812;2024-03-22T08:35:17;10.80;99.90
52919;DHT22;38793;52.690;6.812;2024-03-22T08:37:42;10.80;99.90
52919;DHT22;38793;52.690;6.812;2024-03-22T08:40:08;10.80;99.90
52919;DHT22;38793;52.690;6.812;2024-03-22T08:42:35;10.80;99.90
52919;DHT22;38793;52.690;6.812;2024-03-22T08:45:01;10.80;99.90
52919;DHT22;38793;52.690;6.812;2024-03-22T08:47:27;10.80;99.90
52919;DHT22;38793;52.690;6.812;2024-03-22T08:49:52;10.80;99.90
52919;DHT22;38793;52.690;6.812;2024-03-22T08:52:18;10.80;99.90
52919;DHT22;38793;52.690;6.812;2024-03-22T08:54:44;10.80;99.90
52919;DHT22;38793;52.690;6.812;2024-03-22T08:57:09;10.80;99.90
52919;DHT22;38793;52.690;6.812;2024-03-22T08:59:35;10.80;99.90
52919;DHT22;38793;52.690;6.812;2024-03-22T09:02:03;10.80;99.90
52919;DHT22;38793;52.690;6.812;2024-03-22T09:04:29;10.80;99.90
52919;DHT22;38793;52.690;6.812;2024-03-22T09:06:54;10.80;99.90
52919;DHT22;38793;52.690;6.812;2024-03-22T09:09:20;10.80;99.90
52919;DHT22;38793;52.690;6.812;2024-03-22T09:11:46;10.70;99.90
52919;DHT22;38793;52.690;6.812;2024-03-22T09:14:11;10.70;99.90
52919;DHT22;38793;52.690;6.812;2024-03-22T09:16:37;10.60;99.90
52919;DHT22;38793;52.690;6.812;2024-03-22T09:19:03;10.60;99.90
52919;DHT22;38793;52.690;6.812;2024-03-22T09:21:28;10.60;99.90
52919;DHT22;38793;52.690;6.812;2024-03-22T09:23:56;10.60;99.90
52919;DHT22;38793;52.690;6.812;2024-03-22T09:26:22;10.50;99.90
52919;DHT22;38793;52.690;6.812;2024-03-22T09:28:48;10.50;99.90
52919;DHT22;38793;52.690;6.812;2024-03-22T09:31:16;10.50;99.90
52919;DHT22;38793;52.690;6.812;2024-03-22T09:33:42;10.40;99.90
52919;DHT22;38793;52.690;6.812;2024-03-22T09:36:08;10.40;99.90
52919;DHT22;38793;52.690;6.812;2024-03-22T09:38:34;10.40;99.90
52919;DHT22;38793;52.690;6.812;2024-03-22T09:40:59;10.40;99.90
52919;DHT22;38793;52.690;6.812;2024-03-22T09:43:27;10.40;99.90
52919;DHT22;38793;52.690;6.812;2024-03-22T09:45:56;10.40;99.90
52919;DHT22;38793;52.690;6.812;2024-03-22T09:48:23;10.30;99.90
52919;DHT22;38793;52.690;6.812;2024-03-22T09:50:49;10.30;99.90
52919;DHT22;38793;52.690;6.812;2024-03-22T09:53:19;10.30;99.90
52919;DHT22;38793;52.690;6.812;2024-03-22T09:55:47;10.30;99.90
52919;DHT22;38793;52.690;6.812;2024-03-22T09:58:13;10.30;99.90
52919;DHT22;38793;52.690;6.812;2024-03-22T10:00:39;10.30;99.90
52919;DHT22;38793;52.690;6.812;2024-03-22T10:03:05;10.40;99.90
52919;DHT22;38793;52.690;6.812;2024-03-22T10:05:31;10.40;99.90
52919;DHT22;38793;52.690;6.812;2024-03-22T10:07:57;10.40;99.90
52919;DHT22;38793;52.690;6.812;2024-03-22T10:10:23;10.40;99.90
52919;DHT22;38793;52.690;6.812;2024-03-22T10:12:49;10.50;99.90
52919;DHT22;38793;52.690;6.812;2024-03-22T10:15:15;10.50;99.90
52919;DHT22;38793;52.690;6.812;2024-03-22T10:17:42;10.50;99.90
52919;DHT22;38793;52.690;6.812;2024-03-22T10:20:08;10.50;99.90
52919;DHT22;38793;52.690;6.812;2024-03-22T10:22:43;10.50;99.90
52919;DHT22;38793;52.690;6.812;2024-03-22T10:25:09;10.50;99.90
52919;DHT22;38793;52.690;6.812;2024-03-22T10:27:38;10.50;99.90
52919;DHT22;38793;52.690;6.812;2024-03-22T10:30:08;10.50;99.90
52919;DHT22;38793;52.690;6.812;2024-03-22T10:32:36;10.40;99.90
52919;DHT22;38793;52.690;6.812;2024-03-22T10:35:06;10.40;99.90
52919;DHT22;38793;52.690;6.812;2024-03-22T10:37:33;10.40;99.90
52919;DHT22;38793;52.690;6.812;2024-03-22T10:40:01;10.50;99.90
52919;DHT22;38793;52.690;6.812;2024-03-22T10:42:36;10.40;99.90
52919;DHT22;38793;52.690;6.812;2024-03-22T10:45:02;10.50;99.90
52919;DHT22;38793;52.690;6.812;2024-03-22T10:47:31;10.50;99.90
52919;DHT22;38793;52.690;6.812;2024-03-22T10:50:05;10.50;99.90
52919;DHT22;38793;52.690;6.812;2024-03-22T10:52:52;10.50;99.90
52919;DHT22;38793;52.690;6.812;2024-03-22T10:55:26;10.50;99.90
52919;DHT22;38793;52.690;6.812;2024-03-22T10:57:56;10.50;99.90
52919;DHT22;38793;52.690;6.812;2024-03-22T11:00:33;10.50;99.90
52919;DHT22;38793;52.690;6.812;2024-03-22T11:02:59;10.50;99.90
52919;DHT22;38793;52.690;6.812;2024-03-22T11:05:27;10.40;99.90
52919;DHT22;38793;52.690;6.812;2024-03-22T11:08:05;10.40;99.90
52919;DHT22;38793;52.690;6.812;2024-03-22T11:10:34;10.40;99.90
52919;DHT22;38793;52.690;6.812;2024-03-22T11:13:07;10.50;99.90
52919;DHT22;38793;52.690;6.812;2024-03-22T11:15:34;10.50;99.90
52919;DHT22;38793;52.690;6.812;2024-03-22T11:18:00;10.50;99.90
52919;DHT22;38793;52.690;6.812;2024-03-22T11:20:28;10.60;99.90
52919;DHT22;38793;52.690;6.812;2024-03-22T11:22:56;10.60;99.90
52919;DHT22;38793;52.690;6.812;2024-03-22T11:25:21;10.60;99.90
52919;DHT22;38793;52.690;6.812;2024-03-22T11:27:47;10.60;99.90
52919;DHT22;38793;52.690;6.812;2024-03-22T11:30:13;10.60;99.90
52919;DHT22;38793;52.690;6.812;2024-03-22T11:32:40;10.60;99.90
52919;DHT22;38793;52.690;6.812;2024-03-22T11:35:11;10.60;99.90
52919;DHT22;38793;52.690;6.812;2024-03-22T11:37:40;10.50;99.90
52919;DHT22;38793;52.690;6.812;2024-03-22T11:40:08;10.60;99.90
52919;DHT22;38793;52.690;6.812;2024-03-22T11:42:39;10.50;99.90
52919;DHT22;38793;52.690;6.812;2024-03-22T11:45:07;10.50;99.90
52919;DHT22;38793;52.690;6.812;2024-03-22T11:47:34;10.60;99.90
52919;DHT22;38793;52.690;6.812;2024-03-22T11:49:59;10.60;99.90
52919;DHT22;38793;52.690;6.812;2024-03-22T11:52:25;10.60;99.90
52919;DHT22;38793;52.690;6.812;2024-03-22T11:54:54;10.50;99.90
52919;DHT22;38793;52.690;6.812;2024-03-22T11:57:23;10.60;99.90
52919;DHT22;38793;52.690;6.812;2024-03-22T11:59:50;10.60;99.90
52919;DHT22;38793;52.690;6.812;2024-03-22T12:02:16;10.60;99.90
52919;DHT22;38793;52.690;6.812;2024-03-22T12:04:46;10.60;99.90
52919;DHT22;38793;52.690;6.812;2024-03-22T12:07:17;10.50;99.90
52919;DHT22;38793;52.690;6.812;2024-03-22T12:09:45;10.60;99.90
52919;DHT22;38793;52.690;6.812;2024-03-22T12:12:12;10.60;99.90
52919;DHT22;38793;52.690;6.812;2024-03-22T12:14:39;10.60;99.90
52919;DHT22;38793;52.690;6.812;2024-03-22T12:17:06;10.60;99.90
52919;DHT22;38793;52.690;6.812;2024-03-22T12:19:32;10.60;99.90
52919;DHT22;38793;52.690;6.812;2024-03-22T12:21:58;10.70;99.90
52919;DHT22;38793;52.690;6.812;2024-03-22T12:24:24;10.70;99.90
52919;DHT22;38793;52.690;6.812;2024-03-22T12:26:50;10.80;99.90
52919;DHT22;38793;52.690;6.812;2024-03-22T12:29:19;10.80;99.90
52919;DHT22;38793;52.690;6.812;2024-03-22T12:31:46;10.80;99.90
52919;DHT22;38793;52.690;6.812;2024-03-22T12:34:12;10.80;99.90
52919;DHT22;38793;52.690;6.812;2024-03-22T12:36:38;10.80;99.90
52919;DHT22;38793;52.690;6.812;2024-03-22T12:39:04;10.80;99.90
52919;DHT22;38793;52.690;6.812;2024-03-22T12:41:30;10.80;99.90
52919;DHT22;38793;52.690;6.812;2024-03-22T12:43:57;10.80;99.90
52919;DHT22;38793;52.690;6.812;2024-03-22T12:46:23;10.90;99.90
52919;DHT22;38793;52.690;6.812;2024-03-22T12:48:49;10.90;99.90
52919;DHT22;38793;52.690;6.812;2024-03-22T12:51:15;10.90;99.90
52919;DHT22;38793;52.690;6.812;2024-03-22T12:53:40;11.00;99.90
52919;DHT22;38793;52.690;6.812;2024-03-22T12:56:06;11.00;99.90
52919;DHT22;38793;52.690;6.812;2024-03-22T12:58:32;11.10;99.90
52919;DHT22;38793;52.690;6.812;2024-03-22T13:00:58;11.20;99.90
52919;DHT22;38793;52.690;6.812;2024-03-22T13:03:26;11.20;99.90
52919;DHT22;38793;52.690;6.812;2024-03-22T13:05:52;11.20;99.90
52919;DHT22;38793;52.690;6.812;2024-03-22T13:08:19;11.20;99.90
52919;DHT22;38793;52.690;6.812;2024-03-22T13:10:45;11.20;99.90
52919;DHT22;38793;52.690;6.812;2024-03-22T13:13:11;11.20;99.90
52919;DHT22;38793;52.690;6.812;2024-03-22T13:15:36;11.20;99.90
52919;DHT22;38793;52.690;6.812;2024-03-22T13:18:03;11.20;99.90
52919;DHT22;38793;52.690;6.812;2024-03-22T13:20:29;11.10;99.90
52919;DHT22;38793;52.690;6.812;2024-03-22T13:22:55;11.10;99.90
52919;DHT22;38793;52.690;6.812;2024-03-22T13:25:21;11.10;99.90
52919;DHT22;38793;52.690;6.812;2024-03-22T13:27:47;11.10;99.90
52919;DHT22;38793;52.690;6.812;2024-03-22T13:30:13;11.10;99.90
52919;DHT22;38793;52.690;6.812;2024-03-22T13:32:40;11.10;99.90
52919;DHT22;38793;52.690;6.812;2024-03-22T13:35:06;11.00;99.90
52919;DHT22;38793;52.690;6.812;2024-03-22T13:37:32;11.00;99.90
52919;DHT22;38793;52.690;6.812;2024-03-22T13:39:58;10.90;99.90
52919;DHT22;38793;52.690;6.812;2024-03-22T13:42:25;10.80;99.90
52919;DHT22;38793;52.690;6.812;2024-03-22T13:44:51;10.70;99.90
52919;DHT22;38793;52.690;6.812;2024-03-22T13:47:16;10.70;99.90
52919;DHT22;38793;52.690;6.812;2024-03-22T13:49:43;10.60;99.90
52919;DHT22;38793;52.690;6.812;2024-03-22T13:52:09;10.60;99.90
52919;DHT22;38793;52.690;6.812;2024-03-22T13:54:35;10.50;99.90
52919;DHT22;38793;52.690;6.812;2024-03-22T13:57:01;10.50;99.90
52919;DHT22;38793;52.690;6.812;2024-03-22T13:59:29;10.50;99.90
52919;DHT22;38793;52.690;6.812;2024-03-22T14:01:56;10.50;99.90
52919;DHT22;38793;52.690;6.812;2024-03-22T14:04:22;10.50;99.90
52919;DHT22;38793;52.690;6.812;2024-03-22T14:06:47;10.40;99.90
52919;DHT22;38793;52.690;6.812;2024-03-22T14:09:13;10.40;99.90
52919;DHT22;38793;52.690;6.812;2024-03-22T14:11:40;10.30;99.90
52919;DHT22;38793;52.690;6.812;2024-03-22T14:14:11;10.30;99.90
52919;DHT22;38793;52.690;6.812;2024-03-22T14:16:40;10.30;99.90
52919;DHT22;38793;52.690;6.812;2024-03-22T14:19:07;10.20;99.90
52919;DHT22;38793;52.690;6.812;2024-03-22T14:21:32;10.20;99.90
52919;DHT22;38793;52.690;6.812;2024-03-22T14:23:58;10.20;99.90
52919;DHT22;38793;52.690;6.812;2024-03-22T14:26:24;10.20;99.90
52919;DHT22;38793;52.690;6.812;2024-03-22T14:28:50;10.10;99.90
52919;DHT22;38793;52.690;6.812;2024-03-22T14:31:16;10.10;99.90
52919;DHT22;38793;52.690;6.812;2024-03-22T14:33:42;10.10;99.90
52919;DHT22;38793;52.690;6.812;2024-03-22T14:36:08;10.10;99.90
52919;DHT22;38793;52.690;6.812;2024-03-22T14:38:35;10.10;99.90
52919;DHT22;38793;52.690;6.812;2024-03-22T14:41:00;10.00;99.90
52919;DHT22;38793;52.690;6.812;2024-03-22T14:43:27;10.00;99.90
52919;DHT22;38793;52.690;6.812;2024-03-22T14:45:53;10.00;99.90
52919;DHT22;38793;52.690;6.812;2024-03-22T14:48:23;10.00;99.90
52919;DHT22;38793;52.690;6.812;2024-03-22T14:50:49;10.00;99.90
52919;DHT22;38793;52.690;6.812;2024-03-22T14:53:16;10.00;99.90
52919;DHT22;38793;52.690;6.812;2024-03-22T14:55:56;10.00;99.90
52919;DHT22;38793;52.690;6.812;2024-03-22T14:58:28;10.00;99.90
52919;DHT22;38793;52.690;6.812;2024-03-22T15:01:00;10.00;99.90
52919;DHT22;38793;52.690;6.812;2024-03-22T15:03:26;10.10;99.90
52919;DHT22;38793;52.690;6.812;2024-03-22T15:05:54;10.10;99.90
52919;DHT22;38793;52.690;6.812;2024-03-22T15:08:21;10.10;99.90
52919;DHT22;38793;52.690;6.812;2024-03-22T15:10:46;10.10;99.90
52919;DHT22;38793;52.690;6.812;2024-03-22T15:13:14;10.10;99.90
52919;DHT22;38793;52.690;6.812;2024-03-22T15:15:40;10.20;99.90
52919;DHT22;38793;52.690;6.812;2024-03-22T15:18:07;10.20;99.90
52919;DHT22;38793;52.690;6.812;2024-03-22T15:20:33;10.20;99.90
52919;DHT22;38793;52.690;6.812;2024-03-22T15:22:59;10.20;99.90
52919;DHT22;38793;52.690;6.812;2024-03-22T15:25:24;10.20;99.90
52919;DHT22;38793;52.690;6.812;2024-03-22T15:27:51;10.20;99.90